Lake Colby, New York
Current Conditions -  °F | °C
As of 8:51 AM on Saturday 25 Oct 2014 (Local Time) from KSLK Reporting Station
Haze Haze  
Wind Chill: 34°   Ceiling: 300
Heat Index: 39°   Visibility: 4mi
Dew Point: 38°   Wind: 7mph
Humidity: 96%   Direction: 220°SW
Pressure: 29.76"   Gusts: NA
Location:  44.3202°N, 74.2149°W
Report Text: KSLK 251251Z AUTO 22006KT 4SM BR OVC003 04/03 A2976 RMK AO2 SLP088 T00390033
Loading
Personal Weather Stations






























Interactive Weather Map
Tropical Storm Tracking
New forecast layout! Learn more

10-Day Weather Forecast

Advertisements
Track Severe Weather on mobile